Time;durP1;ratioP1;P1;durP2;ratioP2;P2;SDS_P1;SDS_P2;PMS_P1;PMS_P2;Temp;Humidity;BMP_temperature;BMP_pressure;BME280_temperature;BME280_humidity;BME280_pressure;Samples;Min_cycle;Max_cycle;Signal;HPM_P1;HPM_P2
2023/11/27 00:01:51;;;;;;;14.70;6.57;;;;;;;8.62;64.64;100913.94;4982062;28;106562;-78
2023/11/27 00:04:20;;;;;;;15.23;6.60;;;;;;;8.61;64.50;100906.06;4980006;28;107517;-78
2023/11/27 00:06:47;;;;;;;13.30;6.68;;;;;;;8.59;64.56;100898.25;4977623;28;123213;-79
2023/11/27 00:09:14;;;;;;;13.15;6.88;;;;;;;8.60;64.55;100904.38;5003169;28;121925;-79
2023/11/27 00:11:42;;;;;;;15.32;6.93;;;;;;;8.57;64.69;100894.81;5008885;28;106847;-80
2023/11/27 00:14:10;;;;;;;19.13;7.28;;;;;;;8.55;64.75;100892.22;4994451;28;108162;-81
2023/11/27 00:16:39;;;;;;;12.98;6.65;;;;;;;8.55;64.58;100891.31;4991606;28;124782;-79
2023/11/27 00:19:07;;;;;;;14.60;6.95;;;;;;;8.56;64.79;100874.59;4981409;28;124334;-79
2023/11/27 00:21:34;;;;;;;14.85;7.05;;;;;;;8.55;64.63;100867.56;4967688;28;106726;-80
2023/11/27 00:24:15;;;;;;;14.90;7.30;;;;;;;8.54;65.00;100868.50;4980053;28;107683;-79
2023/11/27 00:26:42;;;;;;;13.95;6.97;;;;;;;8.52;64.62;100850.06;4981661;28;123280;-80
2023/11/27 00:29:16;;;;;;;12.68;6.78;;;;;;;8.52;64.89;100850.06;4988169;28;124594;-80
2023/11/27 00:31:43;;;;;;;13.07;6.20;;;;;;;8.52;64.98;100844.78;4986431;28;105581;-81
2023/11/27 00:35:20;;;;;;;15.80;6.50;;;;;;;8.51;64.98;100842.19;4979283;28;106690;-81
2023/11/27 00:37:48;;;;;;;15.20;6.67;;;;;;;8.49;65.14;100833.47;4996533;28;122508;-81
2023/11/27 00:40:40;;;;;;;12.80;6.15;;;;;;;8.46;65.03;100830.97;4991498;28;124437;-81
2023/11/27 00:43:09;;;;;;;17.00;6.72;;;;;;;8.48;64.84;100831.78;4998749;28;108124;-81
2023/11/27 00:45:40;;;;;;;12.38;6.18;;;;;;;8.47;64.82;100825.63;4993655;28;107307;-81
2023/11/27 00:48:10;;;;;;;15.27;6.35;;;;;;;8.47;64.83;100814.22;4990380;28;123874;-81
2023/11/27 00:50:44;;;;;;;15.98;6.32;;;;;;;8.49;65.26;100825.56;4988428;28;122128;-80
2023/11/27 00:54:05;;;;;;;11.60;6.25;;;;;;;8.47;65.14;100809.78;4998290;28;108204;-81
2023/11/27 00:57:02;;;;;;;14.60;6.57;;;;;;;8.46;64.67;100801.94;4980613;28;107033;-79
2023/11/27 00:59:30;;;;;;;17.00;5.85;;;;;;;8.45;65.10;100794.94;4992355;28;123845;-78
2023/11/27 01:02:00;;;;;;;13.13;6.07;;;;;;;8.43;65.02;100791.50;4980561;28;123875;-79
2023/11/27 01:04:30;;;;;;;12.38;6.00;;;;;;;8.41;64.85;100788.00;4990668;28;106832;-80
2023/11/27 01:06:59;;;;;;;16.40;6.70;;;;;;;8.41;65.06;100777.47;4976755;28;107670;-80
2023/11/27 01:09:31;;;;;;;13.27;6.05;;;;;;;8.40;64.90;100776.59;4997217;28;124062;-79
2023/11/27 01:11:59;;;;;;;16.20;6.55;;;;;;;8.39;64.87;100775.72;4991144;28;122927;-80
2023/11/27 01:14:26;;;;;;;12.20;5.88;;;;;;;8.39;65.03;100781.00;4983829;28;108557;-79
2023/11/27 01:16:53;;;;;;;13.05;6.40;;;;;;;8.38;65.07;100767.84;4987847;28;108962;-79
2023/11/27 01:19:22;;;;;;;13.30;6.03;;;;;;;8.38;65.21;100760.81;4981733;28;124482;-79
2023/11/27 01:21:52;;;;;;;13.63;6.32;;;;;;;8.37;64.88;100759.09;4988177;28;122756;-79
2023/11/27 01:24:23;;;;;;;13.93;6.32;;;;;;;8.37;64.86;100753.81;4985799;28;109754;-79
2023/11/27 01:26:52;;;;;;;15.30;5.88;;;;;;;8.35;64.88;100760.94;4975232;28;110114;-79
2023/11/27 01:29:26;;;;;;;12.00;6.30;;;;;;;8.31;65.03;100746.13;4981666;28;123288;-79
2023/11/27 01:31:54;;;;;;;13.90;5.90;;;;;;;8.31;64.87;100746.13;4971877;28;122207;-80
2023/11/27 01:34:21;;;;;;;14.07;6.63;;;;;;;8.31;65.37;100746.13;4973723;28;108972;-79
2023/11/27 01:36:52;;;;;;;14.85;6.45;;;;;;;8.29;65.41;100737.41;4988455;28;106787;-79
2023/11/27 01:39:19;;;;;;;11.80;6.07;;;;;;;8.31;65.00;100740.00;4994782;28;123104;-79
2023/11/27 01:41:46;;;;;;;12.10;6.25;;;;;;;8.31;64.77;100730.28;4951170;28;123184;-79
2023/11/27 01:44:15;;;;;;;15.60;6.50;;;;;;;8.31;64.95;100725.03;4975392;28;108603;-79
2023/11/27 01:46:45;;;;;;;14.43;6.50;;;;;;;8.31;64.84;100725.03;4975336;28;109075;-80
2023/11/27 01:49:15;;;;;;;16.50;6.22;;;;;;;8.32;65.08;100720.59;4958654;28;123048;-79
2023/11/27 01:51:44;;;;;;;18.52;6.20;;;;;;;8.31;65.05;100713.63;4984312;28;123527;-78
2023/11/27 01:54:12;;;;;;;14.65;6.60;;;;;;;8.31;65.15;100703.06;4982233;28;108036;-79
2023/11/27 01:56:46;;;;;;;16.67;6.45;;;;;;;8.30;64.94;100707.44;4986893;28;107309;-80
2023/11/27 01:59:15;;;;;;;11.63;6.57;;;;;;;8.30;65.17;100702.19;4975490;28;122240;-79
2023/11/27 02:01:43;;;;;;;14.23;6.47;;;;;;;8.30;64.93;100691.63;4985537;28;123427;-80
2023/11/27 02:04:12;;;;;;;14.30;7.03;;;;;;;8.28;65.04;100688.19;4990419;28;107596;-80
2023/11/27 02:06:39;;;;;;;11.82;6.60;;;;;;;8.30;64.97;100686.34;5006223;28;106806;-81
2023/11/27 02:09:08;;;;;;;15.73;6.72;;;;;;;8.30;65.13;100683.72;4999265;28;124748;-82
2023/11/27 02:11:50;;;;;;;13.25;6.50;;;;;;;8.30;65.18;100675.78;4992387;22;122325;-77
2023/11/27 02:14:18;;;;;;;12.68;6.25;;;;;;;8.30;64.88;100680.22;4941126;28;110545;-77
2023/11/27 02:16:45;;;;;;;14.23;7.30;;;;;;;8.29;65.15;100676.72;4952751;28;111425;-77
2023/11/27 02:19:13;;;;;;;15.18;7.03;;;;;;;8.28;64.84;100659.16;4946209;28;124527;-77
2023/11/27 02:21:42;;;;;;;13.43;6.72;;;;;;;8.28;65.06;100667.06;4947460;28;123718;-77
2023/11/27 02:24:09;;;;;;;15.73;6.80;;;;;;;8.29;64.92;100662.69;4927388;28;109158;-77
2023/11/27 02:26:37;;;;;;;15.93;7.47;;;;;;;8.30;65.07;100656.47;4931781;28;109891;-76
2023/11/27 02:29:04;;;;;;;15.80;6.90;;;;;;;8.29;64.78;100652.97;4940069;28;124433;-76
2023/11/27 02:31:32;;;;;;;17.08;6.60;;;;;;;8.29;65.01;100642.44;4927590;28;121596;-77
2023/11/27 02:33:59;;;;;;;13.38;6.40;;;;;;;8.29;64.77;100642.44;4947459;28;111366;-77
2023/11/27 02:36:28;;;;;;;11.82;6.35;;;;;;;8.28;64.95;100640.69;4930402;28;109137;-77
2023/11/27 02:38:56;;;;;;;13.20;6.65;;;;;;;8.27;65.18;100628.44;4939908;28;123114;-76
2023/11/27 02:41:24;;;;;;;11.25;6.43;;;;;;;8.27;64.93;100633.72;4959051;28;121643;-77
2023/11/27 02:43:51;;;;;;;13.00;6.75;;;;;;;8.28;64.73;100624.00;4948629;28;107201;-77
2023/11/27 02:46:19;;;;;;;12.35;6.63;;;;;;;8.28;64.78;100614.31;4953954;28;107424;-76
2023/11/27 02:48:47;;;;;;;12.52;5.95;;;;;;;8.26;64.74;100610.88;4936838;28;121899;-76
2023/11/27 02:51:15;;;;;;;12.43;6.05;;;;;;;8.24;65.08;100596.03;4958158;28;124951;-76
2023/11/27 02:53:42;;;;;;;11.68;6.50;;;;;;;8.22;64.61;100593.44;4942155;28;108164;-76
2023/11/27 02:56:09;;;;;;;12.10;6.38;;;;;;;8.21;64.68;100591.72;4947425;28;108212;-76
2023/11/27 02:58:38;;;;;;;12.25;6.60;;;;;;;8.21;64.99;100581.16;4929889;28;122009;-77
2023/11/27 03:01:08;;;;;;;14.68;6.60;;;;;;;8.19;64.77;100575.09;4933640;28;121771;-76
2023/11/27 03:03:37;;;;;;;11.82;6.18;;;;;;;8.20;64.63;100574.19;4944771;28;109222;-77
2023/11/27 03:06:05;;;;;;;14.75;6.38;;;;;;;8.18;64.89;100571.59;4937777;28;109841;-77
2023/11/27 03:08:32;;;;;;;12.23;5.88;;;;;;;8.17;64.91;100558.47;4931089;28;124027;-76
2023/11/27 03:10:59;;;;;;;16.67;6.45;;;;;;;8.16;64.84;100556.78;4931087;28;121800;-77
2023/11/27 03:13:27;;;;;;;10.65;6.10;;;;;;;8.13;64.92;100541.06;4923343;28;110153;-76
2023/11/27 03:15:54;;;;;;;9.70;5.35;;;;;;;8.15;64.99;100539.22;4930814;28;108057;-76
2023/11/27 03:18:21;;;;;;;13.52;5.82;;;;;;;8.13;64.91;100530.50;4927415;28;123146;-77
2023/11/27 03:20:49;;;;;;;10.20;5.40;;;;;;;8.12;65.10;100521.75;4924371;28;124134;-76
2023/11/27 03:23:16;;;;;;;16.48;6.28;;;;;;;8.12;64.62;100523.53;4926032;28;109103;-76
2023/11/27 03:25:43;;;;;;;14.65;5.93;;;;;;;8.11;64.79;100516.53;4928240;28;109146;-77
2023/11/27 03:28:10;;;;;;;10.82;5.50;;;;;;;8.11;64.87;100511.25;4904522;28;126207;-76
2023/11/27 03:30:38;;;;;;;11.98;6.07;;;;;;;8.10;64.89;100504.25;4921072;28;123950;-77
2023/11/27 03:33:05;;;;;;;13.60;5.25;;;;;;;8.08;64.96;100506.06;4922742;28;108845;-76
2023/11/27 03:35:33;;;;;;;11.20;5.85;;;;;;;8.05;65.00;100496.53;4936668;28;109588;-76
2023/11/27 03:38:00;;;;;;;13.15;5.97;;;;;;;8.04;65.27;100492.16;4923010;28;125255;-76
2023/11/27 03:40:27;;;;;;;13.65;5.60;;;;;;;8.04;65.05;100488.66;4919595;28;122958;-77
2023/11/27 03:42:55;;;;;;;10.43;5.07;;;;;;;8.03;64.82;100481.69;4939216;28;110022;-76
2023/11/27 03:45:22;;;;;;;9.50;5.45;;;;;;;8.03;64.98;100476.41;4936127;28;112278;-76
2023/11/27 03:47:49;;;;;;;9.40;5.43;;;;;;;8.02;65.41;100467.63;4926811;28;124223;-76
2023/11/27 03:50:16;;;;;;;11.38;5.20;;;;;;;8.02;65.44;100465.00;4923532;28;123822;-76
2023/11/27 03:52:44;;;;;;;11.40;5.28;;;;;;;8.01;64.96;100452.75;4922456;28;112647;-76
2023/11/27 03:55:11;;;;;;;9.25;5.57;;;;;;;8.00;65.21;100451.00;4938889;28;110579;-77
2023/11/27 03:57:38;;;;;;;10.02;5.15;;;;;;;7.99;65.01;100444.03;4945115;28;124381;-76
2023/11/27 04:00:09;;;;;;;10.85;5.20;;;;;;;7.99;64.97;100436.97;4943999;28;124945;-76
2023/11/27 04:02:39;;;;;;;12.05;5.25;;;;;;;7.98;65.37;100437.88;4923696;28;109877;-77
2023/11/27 04:05:07;;;;;;;9.55;5.10;;;;;;;7.97;65.16;100420.34;4928545;28;109015;-76
2023/11/27 04:07:34;;;;;;;12.25;4.90;;;;;;;7.99;65.46;100418.50;4922512;28;123538;-77
2023/11/27 04:10:03;;;;;;;9.15;4.82;;;;;;;7.97;65.19;100415.09;4925039;28;123929;-77
2023/11/27 04:12:33;;;;;;;11.95;5.07;;;;;;;7.96;65.24;100402.81;4946016;28;109977;-77
2023/11/27 04:15:02;;;;;;;9.27;4.60;;;;;;;7.94;65.15;100409.94;4930240;28;108855;-77
2023/11/27 04:17:29;;;;;;;8.43;4.38;;;;;;;7.93;65.09;100397.69;4927327;28;123282;-77
2023/11/27 04:19:56;;;;;;;9.43;4.32;;;;;;;7.93;65.30;100391.53;4920735;28;123815;-77
2023/11/27 04:22:24;;;;;;;10.13;3.78;;;;;;;7.93;65.30;100387.13;4929897;28;109151;-77
2023/11/27 04:24:52;;;;;;;8.50;3.42;;;;;;;7.92;65.14;100379.28;4930588;28;108957;-76
2023/11/27 04:27:19;;;;;;;10.30;3.53;;;;;;;7.91;65.22;100367.88;4931100;28;123740;-77
2023/11/27 04:29:47;;;;;;;5.93;3.60;;;;;;;7.90;65.06;100366.16;4938696;28;122923;-77
2023/11/27 04:32:14;;;;;;;5.13;3.28;;;;;;;7.90;65.41;100360.88;4922637;28;109413;-77
2023/11/27 04:34:42;;;;;;;7.78;3.28;;;;;;;7.90;65.09;100350.34;4926940;28;109297;-77
2023/11/27 04:37:10;;;;;;;6.70;3.72;;;;;;;7.90;65.32;100345.06;4940950;28;124192;-77
2023/11/27 04:39:38;;;;;;;8.07;3.80;;;;;;;7.89;65.40;100332.81;4924135;28;123559;-77
2023/11/27 04:42:06;;;;;;;8.48;3.70;;;;;;;7.90;65.13;100323.97;4920384;28;110221;-78
2023/11/27 04:44:35;;;;;;;7.57;3.78;;;;;;;7.89;65.41;100319.63;4922856;28;109832;-77
2023/11/27 04:47:03;;;;;;;8.73;3.70;;;;;;;7.89;65.45;100316.13;4921111;28;122999;-77
2023/11/27 04:49:30;;;;;;;7.30;3.53;;;;;;;7.89;65.20;100316.13;4927827;28;125052;-78
2023/11/27 04:51:57;;;;;;;7.93;3.55;;;;;;;7.87;65.27;100300.34;4927882;28;108529;-78
2023/11/27 04:54:24;;;;;;;6.80;3.20;;;;;;;7.86;65.27;100290.75;4921623;28;109199;-78
2023/11/27 04:56:52;;;;;;;9.40;3.70;;;;;;;7.86;65.11;100288.13;4942544;28;124270;-77
2023/11/27 04:59:19;;;;;;;9.90;3.65;;;;;;;7.87;65.27;100291.59;4929166;28;124236;-78
2023/11/27 05:01:46;;;;;;;9.50;3.60;;;;;;;7.87;65.20;100297.72;4924950;28;109624;-78
2023/11/27 05:04:17;;;;;;;6.63;3.10;;;;;;;7.88;65.17;100294.19;4919372;28;108482;-77
2023/11/27 05:06:45;;;;;;;7.72;3.20;;;;;;;7.88;65.38;100288.91;4922777;28;124362;-77
2023/11/27 05:09:12;;;;;;;7.07;3.50;;;;;;;7.88;65.51;100282.78;4927797;28;124422;-77
2023/11/27 05:11:39;;;;;;;6.55;3.53;;;;;;;7.88;65.07;100283.63;4925462;28;109021;-77
2023/11/27 05:14:07;;;;;;;6.18;3.35;;;;;;;7.88;65.21;100283.63;4924206;28;109278;-77
2023/11/27 05:16:34;;;;;;;7.03;3.53;;;;;;;7.87;65.20;100281.91;4937022;28;124221;-78
2023/11/27 05:19:01;;;;;;;7.97;3.88;;;;;;;7.87;65.36;100274.00;4923073;28;124431;-78
2023/11/27 05:21:28;;;;;;;7.72;3.47;;;;;;;7.87;65.34;100275.78;4927867;28;109838;-78
2023/11/27 05:23:55;;;;;;;8.52;3.88;;;;;;;7.86;65.60;100269.66;4941212;28;107851;-78
2023/11/27 05:26:22;;;;;;;9.63;3.67;;;;;;;7.86;65.53;100269.66;4941342;28;125486;-77
2023/11/27 05:28:50;;;;;;;6.32;3.60;;;;;;;7.87;65.47;100266.09;4926780;28;123906;-77
2023/11/27 05:31:17;;;;;;;7.03;3.42;;;;;;;7.88;65.38;100267.81;4924074;28;109303;-77
2023/11/27 05:33:45;;;;;;;11.02;3.80;;;;;;;7.87;65.37;100250.25;4930806;28;108546;-78
2023/11/27 05:36:12;;;;;;;6.25;3.10;;;;;;;7.87;65.79;100234.44;4957741;28;123673;-77
2023/11/27 05:38:39;;;;;;;6.68;3.45;;;;;;;7.87;65.69;100238.88;4958945;28;123749;-77
2023/11/27 05:41:07;;;;;;;7.25;3.50;;;;;;;7.87;65.78;100234.44;4926525;28;108469;-78
2023/11/27 05:43:35;;;;;;;7.40;3.10;;;;;;;7.87;65.39;100228.31;4927224;28;109047;-77
2023/11/27 05:46:02;;;;;;;4.68;2.80;;;;;;;7.88;65.58;100223.00;4926718;28;123936;-77
2023/11/27 05:48:30;;;;;;;4.60;2.53;;;;;;;7.86;65.70;100213.44;4944289;28;122814;-77
2023/11/27 05:50:57;;;;;;;8.40;3.40;;;;;;;7.87;65.51;100210.72;4929520;28;109458;-77
2023/11/27 05:53:26;;;;;;;6.47;3.10;;;;;;;7.87;65.58;100201.97;4930438;28;108505;-77
2023/11/27 05:55:53;;;;;;;6.72;3.22;;;;;;;7.87;65.78;100201.97;4923784;28;123733;-77
2023/11/27 05:58:20;;;;;;;5.18;3.50;;;;;;;7.87;65.74;100201.97;4939234;28;124543;-78
2023/11/27 06:00:47;;;;;;;4.88;2.97;;;;;;;7.87;65.47;100188.78;4926138;28;109156;-77
2023/11/27 06:03:14;;;;;;;5.72;3.33;;;;;;;7.87;65.92;100187.00;4929720;28;108198;-77
2023/11/27 06:05:42;;;;;;;6.22;2.95;;;;;;;7.86;65.68;100177.38;4926187;28;124060;-78
2023/11/27 06:08:09;;;;;;;7.53;3.33;;;;;;;7.87;65.67;100176.44;4948363;28;124668;-77
2023/11/27 06:10:36;;;;;;;5.05;3.08;;;;;;;7.88;65.65;100175.53;4926354;28;108199;-78
2023/11/27 06:13:03;;;;;;;5.35;3.13;;;;;;;7.88;65.63;100167.63;4925456;28;108388;-77
2023/11/27 06:15:31;;;;;;;3.90;2.78;;;;;;;7.88;65.50;100167.63;4928736;28;123192;-77
2023/11/27 06:17:58;;;;;;;6.13;3.00;;;;;;;7.88;65.46;100156.22;4925431;28;124662;-78
2023/11/27 06:20:25;;;;;;;7.07;3.08;;;;;;;7.88;65.41;100151.81;4941023;28;109056;-78
2023/11/27 06:22:57;;;;;;;5.38;2.72;;;;;;;7.89;65.63;100153.53;4928016;28;109582;-78
2023/11/27 06:25:24;;;;;;;5.80;3.15;;;;;;;7.90;65.88;100159.66;4925090;28;124413;-78
2023/11/27 06:27:51;;;;;;;5.32;2.80;;;;;;;7.90;65.64;100136.78;4928855;28;123129;-78
2023/11/27 06:30:19;;;;;;;6.03;3.00;;;;;;;7.90;65.51;100139.41;4929463;28;109153;-77
2023/11/27 06:32:46;;;;;;;5.53;3.13;;;;;;;7.90;65.57;100130.66;4924236;28;109191;-78
2023/11/27 06:35:13;;;;;;;7.03;2.83;;;;;;;7.90;65.74;100128.88;4925639;28;124666;-77
2023/11/27 06:37:51;;;;;;;3.67;2.80;;;;;;;7.90;65.57;100128.88;4922999;28;124591;-78
2023/11/27 06:40:24;;;;;;;5.40;2.55;;;;;;;7.89;65.73;100132.44;4937608;28;108503;-78
2023/11/27 06:43:08;;;;;;;4.97;2.75;;;;;;;7.90;65.90;100123.59;4932666;28;109141;-78
2023/11/27 06:45:35;;;;;;;5.63;2.97;;;;;;;7.90;65.72;100115.69;4924785;28;124288;-78
2023/11/27 06:48:03;;;;;;;4.95;2.75;;;;;;;7.89;65.56;100116.63;4934210;28;123503;-78
2023/11/27 06:50:30;;;;;;;5.85;2.63;;;;;;;7.90;65.84;100107.78;4935666;28;109946;-78
2023/11/27 06:52:57;;;;;;;5.65;3.05;;;;;;;7.90;65.63;100107.78;4932512;28;109020;-77
2023/11/27 06:55:24;;;;;;;5.00;3.20;;;;;;;7.90;65.57;100107.78;4929373;28;123105;-78
2023/11/27 06:57:51;;;;;;;4.88;2.70;;;;;;;7.88;65.73;100099.06;4923985;28;123539;-77
2023/11/27 07:00:19;;;;;;;3.60;1.98;;;;;;;7.88;65.85;100085.91;4929275;28;108892;-78
2023/11/27 07:02:46;;;;;;;4.68;2.20;;;;;;;7.87;65.70;100092.09;4930041;28;107815;-76
2023/11/27 07:05:14;;;;;;;4.93;2.10;;;;;;;7.86;65.68;100079.84;4946470;28;124750;-78
2023/11/27 07:07:41;;;;;;;4.55;2.08;;;;;;;7.86;65.76;100069.28;4911977;28;121696;-78
2023/11/27 07:10:09;;;;;;;7.32;2.80;;;;;;;7.87;65.55;100065.72;4950393;28;110342;-79
2023/11/27 07:12:36;;;;;;;4.40;2.30;;;;;;;7.87;65.38;100057.81;4951742;28;110030;-78
2023/11/27 07:15:03;;;;;;;7.18;2.58;;;;;;;7.87;65.33;100049.91;4943442;28;123898;-78
2023/11/27 07:17:30;;;;;;;5.07;1.98;;;;;;;7.87;65.77;100044.63;4943440;28;123849;-78
2023/11/27 07:19:58;;;;;;;3.85;1.98;;;;;;;7.88;65.49;100046.34;4944563;28;109581;-80
2023/11/27 07:22:26;;;;;;;3.10;2.10;;;;;;;7.89;65.40;100036.66;4924795;28;107489;-78
2023/11/27 07:24:53;;;;;;;3.70;2.00;;;;;;;7.89;65.33;100026.97;4924067;28;123785;-76
2023/11/27 07:27:22;;;;;;;4.47;2.38;;;;;;;7.88;65.72;100025.25;4928282;28;124315;-76
2023/11/27 07:29:51;;;;;;;5.68;2.00;;;;;;;7.89;65.27;100015.56;4944935;28;107977;-76
2023/11/27 07:32:18;;;;;;;4.82;1.80;;;;;;;7.89;65.48;100020.84;4920476;28;109284;-76
2023/11/27 07:34:45;;;;;;;3.03;2.05;;;;;;;7.87;65.11;100018.25;4947498;28;124070;-76
2023/11/27 07:37:12;;;;;;;3.63;1.90;;;;;;;7.87;65.54;100013.00;4951450;28;123127;-76
2023/11/27 07:39:39;;;;;;;2.67;1.75;;;;;;;7.87;65.28;100002.44;4946591;28;109375;-77
2023/11/27 07:42:07;;;;;;;5.38;2.10;;;;;;;7.88;65.38;100004.16;4929829;28;108572;-76
2023/11/27 07:44:34;;;;;;;3.80;1.83;;;;;;;7.89;65.73;99995.34;4925488;28;123063;-76
2023/11/27 07:47:01;;;;;;;4.38;2.17;;;;;;;7.89;65.54;99999.75;4921423;28;124066;-76
2023/11/27 07:49:28;;;;;;;4.72;1.95;;;;;;;7.89;65.52;99994.47;4938070;28;108684;-76
2023/11/27 07:51:58;;;;;;;4.72;2.00;;;;;;;7.89;65.40;99995.34;4926858;28;108724;-76
2023/11/27 07:54:25;;;;;;;3.20;1.67;;;;;;;7.89;65.57;99984.81;4935290;28;123138;-76
2023/11/27 07:56:53;;;;;;;3.25;2.00;;;;;;;7.89;65.51;99982.16;4940647;28;123240;-76
2023/11/27 07:59:20;;;;;;;2.80;1.80;;;;;;;7.88;65.53;99972.53;4923253;28;110274;-76
2023/11/27 08:01:48;;;;;;;3.63;2.00;;;;;;;7.89;65.35;99974.25;4937625;28;109513;-77
2023/11/27 08:04:15;;;;;;;3.95;1.92;;;;;;;7.89;65.35;99962.84;4921126;28;124692;-76
2023/11/27 08:06:44;;;;;;;3.75;1.58;;;;;;;7.88;65.58;99967.25;4941792;28;123053;-76
2023/11/27 08:09:11;;;;;;;4.15;1.83;;;;;;;7.88;65.43;99964.63;4934767;28;108695;-76
2023/11/27 08:11:38;;;;;;;3.20;1.95;;;;;;;7.87;65.68;99948.88;4924751;28;109195;-76
2023/11/27 08:14:06;;;;;;;2.83;1.85;;;;;;;7.87;65.38;99949.72;4925009;28;123893;-76
2023/11/27 08:16:33;;;;;;;4.85;1.95;;;;;;;7.87;65.39;99938.31;4922597;28;124021;-76
2023/11/27 08:19:01;;;;;;;2.25;1.50;;;;;;;7.87;65.37;99939.19;4928184;28;109191;-76
2023/11/27 08:21:28;;;;;;;2.13;1.52;;;;;;;7.88;65.24;99935.63;4929243;28;109040;-77
2023/11/27 08:23:56;;;;;;;3.80;1.83;;;;;;;7.87;65.46;99923.34;4923743;28;124116;-76
2023/11/27 08:26:27;;;;;;;3.10;1.83;;;;;;;7.88;65.63;99930.34;4922287;28;123845;-76
2023/11/27 08:28:54;;;;;;;3.13;1.88;;;;;;;7.88;65.56;99919.81;4934039;28;107859;-76
2023/11/27 08:31:28;;;;;;;3.50;2.22;;;;;;;7.89;65.71;99918.91;4917346;28;107847;-76
2023/11/27 08:33:55;;;;;;;3.53;1.80;;;;;;;7.89;65.64;99910.97;4920675;28;122253;-76
2023/11/27 08:36:24;;;;;;;3.20;1.80;;;;;;;7.90;65.58;99910.03;4920885;28;123143;-77
2023/11/27 08:38:57;;;;;;;4.13;1.77;;;;;;;7.91;65.77;99908.25;4923751;28;109188;-76
2023/11/27 08:41:25;;;;;;;5.15;2.10;;;;;;;7.92;65.44;99908.19;4920363;28;106875;-77
2023/11/27 08:43:52;;;;;;;2.80;1.92;;;;;;;7.92;65.62;99900.25;4921760;28;124345;-77
2023/11/27 08:46:19;;;;;;;2.90;1.75;;;;;;;7.94;65.62;99903.69;4923125;28;124606;-77
2023/11/27 08:48:46;;;;;;;3.65;1.75;;;;;;;7.93;65.53;99891.44;4924921;28;110016;-77
2023/11/27 08:51:14;;;;;;;3.08;1.80;;;;;;;7.94;65.78;99887.00;4921431;28;109896;-76
2023/11/27 08:53:41;;;;;;;2.50;1.85;;;;;;;7.92;65.61;99884.44;4924725;28;123270;-77
2023/11/27 08:56:11;;;;;;;4.30;1.80;;;;;;;7.93;65.84;99880.91;4926728;28;123789;-77
2023/11/27 08:58:38;;;;;;;3.03;1.90;;;;;;;7.94;65.52;99876.47;4925773;28;108184;-77
2023/11/27 09:01:05;;;;;;;3.47;1.95;;;;;;;7.94;65.28;99877.31;4922381;28;108876;-76
2023/11/27 09:03:33;;;;;;;2.70;1.90;;;;;;;7.94;65.78;99874.69;4924492;28;123966;-77
2023/11/27 09:06:00;;;;;;;3.92;1.90;;;;;;;7.95;65.92;99868.50;4923265;28;124379;-76
2023/11/27 09:08:27;;;;;;;2.25;1.77;;;;;;;7.97;65.57;99866.63;4923758;28;109820;-77
2023/11/27 09:10:55;;;;;;;3.72;1.92;;;;;;;7.98;65.99;99860.41;4925093;28;108675;-77
2023/11/27 09:13:22;;;;;;;5.50;1.98;;;;;;;8.00;65.48;99855.06;4920244;28;124355;-77
2023/11/27 09:15:49;;;;;;;2.88;1.80;;;;;;;8.02;65.66;99841.81;4922433;28;123762;-77
2023/11/27 09:18:17;;;;;;;4.53;2.17;;;;;;;8.03;65.63;99843.53;4925908;28;109360;-77
2023/11/27 09:20:44;;;;;;;3.17;1.90;;;;;;;8.04;65.54;99845.22;4942171;28;107378;-77
2023/11/27 09:23:11;;;;;;;2.55;1.67;;;;;;;8.04;65.88;99839.94;4922447;28;123724;-77
2023/11/27 09:25:39;;;;;;;3.58;2.13;;;;;;;8.05;65.72;99825.84;4920693;28;123931;-77
2023/11/27 09:28:06;;;;;;;3.28;1.90;;;;;;;8.06;65.65;99822.25;4925158;28;108957;-77
2023/11/27 09:30:34;;;;;;;3.63;2.10;;;;;;;8.10;65.50;99823.78;4927873;28;109037;-77
2023/11/27 09:33:01;;;;;;;3.10;1.50;;;;;;;8.11;65.75;99814.97;4936050;28;123912;-79
2023/11/27 09:35:28;;;;;;;2.88;1.50;;;;;;;8.10;65.84;99813.25;4943036;28;122925;-77
2023/11/27 09:37:55;;;;;;;4.93;1.88;;;;;;;8.12;65.61;99811.41;4920559;28;110302;-77
2023/11/27 09:40:23;;;;;;;3.33;1.90;;;;;;;8.15;65.78;99811.25;4922739;28;108863;-77
2023/11/27 09:42:50;;;;;;;3.15;1.88;;;;;;;8.16;65.75;99795.34;4921026;28;123979;-77
2023/11/27 09:45:18;;;;;;;3.67;2.17;;;;;;;8.18;65.83;99797.91;4922201;28;124266;-76
2023/11/27 09:47:49;;;;;;;3.42;1.90;;;;;;;8.21;65.99;99789.81;4920718;28;110110;-76
2023/11/27 09:50:20;;;;;;;4.55;2.10;;;;;;;8.23;65.96;99782.69;4936946;28;109166;-77
2023/11/27 09:53:05;;;;;;;3.25;1.75;;;;;;;8.24;66.01;99784.38;4926331;28;123526;-77
2023/11/27 09:55:38;;;;;;;3.33;1.87;;;;;;;8.28;65.99;99785.94;4943538;28;123489;-76
2023/11/27 09:58:08;;;;;;;1.88;1.67;;;;;;;8.32;65.87;99783.97;4937656;28;108457;-77
2023/11/27 10:00:36;;;;;;;2.60;1.83;;;;;;;8.34;66.11;99775.06;4936346;28;108830;-76
2023/11/27 10:03:04;;;;;;;4.97;2.03;;;;;;;8.36;65.86;99767.94;4925816;28;124688;-77
2023/11/27 10:05:31;;;;;;;2.33;1.60;;;;;;;8.39;65.70;99770.38;4923843;28;125043;-77
2023/11/27 10:07:59;;;;;;;2.58;1.90;;;;;;;8.42;66.07;99760.63;4918793;28;108860;-77
2023/11/27 10:10:26;;;;;;;3.63;2.05;;;;;;;8.44;65.97;99758.75;4923735;28;109077;-76
2023/11/27 10:13:06;;;;;;;3.72;1.88;;;;;;;8.47;65.56;99750.69;4943522;28;126115;-77
2023/11/27 10:15:47;;;;;;;2.58;1.70;;;;;;;8.49;65.83;99740.91;4926831;28;123915;-77
2023/11/27 10:18:19;;;;;;;2.55;1.60;;;;;;;8.50;65.71;99735.53;4927685;28;109273;-76
2023/11/27 10:20:50;;;;;;;3.13;1.85;;;;;;;8.53;66.02;99737.16;4924012;28;108664;-76
2023/11/27 10:23:18;;;;;;;3.45;1.60;;;;;;;8.54;66.12;99728.31;4923040;28;123963;-76
2023/11/27 10:25:45;;;;;;;2.90;1.70;;;;;;;8.55;65.94;99720.31;4921510;28;125155;-76
2023/11/27 10:28:12;;;;;;;2.67;1.50;;;;;;;8.58;65.65;99714.00;4923938;28;110704;-76
2023/11/27 10:30:47;;;;;;;2.85;1.80;;;;;;;8.62;66.06;99710.25;4939586;28;108973;-77
2023/11/27 10:33:15;;;;;;;3.00;1.73;;;;;;;8.64;65.91;99703.09;4939747;28;122577;-76
2023/11/27 10:35:42;;;;;;;2.78;1.90;;;;;;;8.65;65.98;99694.25;4924911;28;122399;-76
2023/11/27 10:38:16;;;;;;;2.92;1.73;;;;;;;8.66;66.18;99685.41;4922410;28;108883;-79
2023/11/27 10:40:43;;;;;;;2.28;1.70;;;;;;;8.68;65.79;99683.53;4937327;28;108076;-78
2023/11/27 10:43:11;;;;;;;2.58;1.60;;;;;;;8.69;65.80;99690.50;4939976;28;124594;-77
2023/11/27 10:45:40;;;;;;;3.75;1.80;;;;;;;8.71;66.01;99678.06;4923369;28;123680;-79
2023/11/27 10:48:08;;;;;;;2.55;1.48;;;;;;;8.72;66.08;99673.63;4926595;28;108756;-77
2023/11/27 10:50:41;;;;;;;1.55;1.23;;;;;;;8.73;65.88;99676.19;4944554;28;108682;-76
2023/11/27 10:53:09;;;;;;;3.45;1.63;;;;;;;8.77;65.82;99677.72;4920621;28;123770;-77
2023/11/27 10:55:38;;;;;;;1.95;1.40;;;;;;;8.80;65.93;99675.84;4941338;28;123056;-77
2023/11/27 10:58:07;;;;;;;2.20;1.40;;;;;;;8.80;66.01;99675.84;4922346;28;108272;-76
2023/11/27 11:00:46;;;;;;;1.83;1.38;;;;;;;8.82;65.98;99668.72;4926863;28;108473;-77
2023/11/27 11:03:15;;;;;;;2.00;1.35;;;;;;;8.83;66.24;99662.47;4922956;28;124091;-77
2023/11/27 11:05:50;;;;;;;2.70;1.50;;;;;;;8.85;66.13;99647.41;4938804;28;123616;-77
2023/11/27 11:08:22;;;;;;;4.47;1.67;;;;;;;8.88;65.90;99647.25;4944504;28;108305;-78
2023/11/27 11:10:49;;;;;;;2.85;1.42;;;;;;;8.90;65.84;99651.47;4926758;28;108731;-77
2023/11/27 11:13:18;;;;;;;1.85;1.35;;;;;;;8.91;65.82;99637.34;4923323;28;123682;-76
2023/11/27 11:16:04;;;;;;;2.75;1.30;;;;;;;8.93;65.96;99632.00;4931721;28;122734;-77
2023/11/27 11:18:48;;;;;;;3.13;1.48;;;;;;;8.95;66.18;99630.09;4922921;28;110334;-78
2023/11/27 11:21:39;;;;;;;1.73;1.20;;;;;;;8.96;65.90;99623.88;4938838;28;110164;-77
2023/11/27 11:24:44;;;;;;;1.67;1.10;;;;;;;8.98;66.28;99619.34;4922849;28;122089;-76
2023/11/27 11:27:20;;;;;;;1.70;0.90;;;;;;;9.00;66.01;99619.25;4921360;28;124387;-77
2023/11/27 11:29:51;;;;;;;1.92;0.90;;;;;;;9.00;66.16;99604.25;4925619;28;109384;-76
2023/11/27 11:32:20;;;;;;;1.67;1.30;;;;;;;9.03;66.05;99603.25;4927272;28;107952;-76
2023/11/27 11:34:51;;;;;;;3.90;1.58;;;;;;;9.05;66.26;99596.94;4923157;28;126197;-76